sensor_id;sensor_type;location;lat;lon;timestamp;P1;durP1;ratioP1;P2;durP2;ratioP2
58756;SDS011;44527;47.460;19.016;2022-10-16T00:01:15;11.85;;;6.18;;
58756;SDS011;44527;47.460;19.016;2022-10-16T00:04:19;16.83;;;6.57;;
58756;SDS011;44527;47.460;19.016;2022-10-16T00:07:22;14.70;;;6.22;;
58756;SDS011;44527;47.460;19.016;2022-10-16T00:10:25;17.10;;;6.30;;
58756;SDS011;44527;47.460;19.016;2022-10-16T00:13:27;16.20;;;6.53;;
58756;SDS011;44527;47.460;19.016;2022-10-16T00:16:30;13.13;;;6.12;;
58756;SDS011;44527;47.460;19.016;2022-10-16T00:19:33;20.90;;;5.90;;
58756;SDS011;44527;47.460;19.016;2022-10-16T00:22:35;11.63;;;5.35;;
58756;SDS011;44527;47.460;19.016;2022-10-16T00:25:38;8.23;;;5.62;;
58756;SDS011;44527;47.460;19.016;2022-10-16T00:28:40;12.05;;;5.40;;
58756;SDS011;44527;47.460;19.016;2022-10-16T00:31:43;27.40;;;6.43;;
58756;SDS011;44527;47.460;19.016;2022-10-16T00:34:46;12.48;;;5.55;;
58756;SDS011;44527;47.460;19.016;2022-10-16T00:37:48;9.68;;;5.72;;
58756;SDS011;44527;47.460;19.016;2022-10-16T00:40:51;10.52;;;5.70;;
58756;SDS011;44527;47.460;19.016;2022-10-16T00:43:54;9.82;;;5.47;;
58756;SDS011;44527;47.460;19.016;2022-10-16T00:46:59;10.77;;;5.78;;
58756;SDS011;44527;47.460;19.016;2022-10-16T00:50:06;14.55;;;5.87;;
58756;SDS011;44527;47.460;19.016;2022-10-16T00:53:13;12.32;;;5.97;;
58756;SDS011;44527;47.460;19.016;2022-10-16T00:56:16;15.65;;;5.72;;
58756;SDS011;44527;47.460;19.016;2022-10-16T00:59:20;13.07;;;6.22;;
58756;SDS011;44527;47.460;19.016;2022-10-16T01:02:26;10.82;;;5.65;;
58756;SDS011;44527;47.460;19.016;2022-10-16T01:05:40;9.27;;;5.60;;
58756;SDS011;44527;47.460;19.016;2022-10-16T01:08:56;14.25;;;6.22;;
58756;SDS011;44527;47.460;19.016;2022-10-16T01:12:12;8.00;;;5.28;;
58756;SDS011;44527;47.460;19.016;2022-10-16T01:15:26;9.65;;;6.00;;
58756;SDS011;44527;47.460;19.016;2022-10-16T01:21:44;10.13;;;5.55;;
58756;SDS011;44527;47.460;19.016;2022-10-16T01:24:50;10.50;;;5.32;;
58756;SDS011;44527;47.460;19.016;2022-10-16T01:27:52;12.15;;;6.62;;
58756;SDS011;44527;47.460;19.016;2022-10-16T01:30:56;13.77;;;5.60;;
58756;SDS011;44527;47.460;19.016;2022-10-16T01:37:32;12.27;;;6.45;;
58756;SDS011;44527;47.460;19.016;2022-10-16T01:40:50;12.93;;;6.18;;
58756;SDS011;44527;47.460;19.016;2022-10-16T01:44:08;19.77;;;6.10;;
58756;SDS011;44527;47.460;19.016;2022-10-16T01:47:32;9.68;;;5.28;;
58756;SDS011;44527;47.460;19.016;2022-10-16T01:50:40;13.85;;;6.25;;
58756;SDS011;44527;47.460;19.016;2022-10-16T01:53:50;10.82;;;6.32;;
58756;SDS011;44527;47.460;19.016;2022-10-16T01:56:56;13.45;;;5.25;;
58756;SDS011;44527;47.460;19.016;2022-10-16T02:00:02;11.85;;;5.68;;
58756;SDS011;44527;47.460;19.016;2022-10-16T02:03:13;10.43;;;5.65;;
58756;SDS011;44527;47.460;19.016;2022-10-16T02:06:18;13.77;;;6.43;;
58756;SDS011;44527;47.460;19.016;2022-10-16T02:09:21;9.82;;;5.80;;
58756;SDS011;44527;47.460;19.016;2022-10-16T02:12:31;20.95;;;6.20;;
58756;SDS011;44527;47.460;19.016;2022-10-16T02:15:38;12.02;;;5.30;;
58756;SDS011;44527;47.460;19.016;2022-10-16T02:18:41;14.07;;;6.00;;
58756;SDS011;44527;47.460;19.016;2022-10-16T02:25:05;11.50;;;6.30;;
58756;SDS011;44527;47.460;19.016;2022-10-16T02:28:26;9.13;;;5.50;;
58756;SDS011;44527;47.460;19.016;2022-10-16T02:31:41;14.75;;;5.90;;
58756;SDS011;44527;47.460;19.016;2022-10-16T02:34:50;14.27;;;5.72;;
58756;SDS011;44527;47.460;19.016;2022-10-16T02:37:54;9.93;;;6.00;;
58756;SDS011;44527;47.460;19.016;2022-10-16T02:40:58;13.40;;;6.05;;
58756;SDS011;44527;47.460;19.016;2022-10-16T02:44:01;14.02;;;6.10;;
58756;SDS011;44527;47.460;19.016;2022-10-16T02:47:03;17.52;;;5.70;;
58756;SDS011;44527;47.460;19.016;2022-10-16T02:50:07;12.90;;;6.28;;
58756;SDS011;44527;47.460;19.016;2022-10-16T02:53:10;16.45;;;6.12;;
58756;SDS011;44527;47.460;19.016;2022-10-16T02:56:14;17.30;;;6.68;;
58756;SDS011;44527;47.460;19.016;2022-10-16T02:59:18;11.75;;;5.32;;
58756;SDS011;44527;47.460;19.016;2022-10-16T03:02:21;10.43;;;6.32;;
58756;SDS011;44527;47.460;19.016;2022-10-16T03:05:23;11.23;;;6.25;;
58756;SDS011;44527;47.460;19.016;2022-10-16T03:08:26;10.77;;;5.80;;
58756;SDS011;44527;47.460;19.016;2022-10-16T03:11:29;9.75;;;6.07;;
58756;SDS011;44527;47.460;19.016;2022-10-16T03:14:32;11.57;;;6.20;;
58756;SDS011;44527;47.460;19.016;2022-10-16T03:17:35;16.83;;;6.18;;
58756;SDS011;44527;47.460;19.016;2022-10-16T03:20:39;14.20;;;6.15;;
58756;SDS011;44527;47.460;19.016;2022-10-16T03:23:41;12.50;;;6.55;;
58756;SDS011;44527;47.460;19.016;2022-10-16T03:26:44;13.45;;;6.05;;
58756;SDS011;44527;47.460;19.016;2022-10-16T03:29:46;9.77;;;6.05;;
58756;SDS011;44527;47.460;19.016;2022-10-16T03:32:49;13.15;;;6.35;;
58756;SDS011;44527;47.460;19.016;2022-10-16T03:35:58;14.38;;;6.75;;
58756;SDS011;44527;47.460;19.016;2022-10-16T03:39:01;14.85;;;6.40;;
58756;SDS011;44527;47.460;19.016;2022-10-16T03:42:03;12.05;;;6.07;;
58756;SDS011;44527;47.460;19.016;2022-10-16T03:45:07;12.75;;;5.25;;
58756;SDS011;44527;47.460;19.016;2022-10-16T03:48:10;15.00;;;5.68;;
58756;SDS011;44527;47.460;19.016;2022-10-16T03:51:15;13.75;;;6.65;;
58756;SDS011;44527;47.460;19.016;2022-10-16T03:54:18;11.27;;;6.22;;
58756;SDS011;44527;47.460;19.016;2022-10-16T03:57:20;12.65;;;6.70;;
58756;SDS011;44527;47.460;19.016;2022-10-16T04:00:27;13.73;;;6.07;;
58756;SDS011;44527;47.460;19.016;2022-10-16T04:03:30;11.88;;;6.12;;
58756;SDS011;44527;47.460;19.016;2022-10-16T04:06:35;10.52;;;6.03;;
58756;SDS011;44527;47.460;19.016;2022-10-16T04:09:37;15.30;;;7.32;;
58756;SDS011;44527;47.460;19.016;2022-10-16T04:12:40;11.43;;;5.47;;
58756;SDS011;44527;47.460;19.016;2022-10-16T04:15:44;10.93;;;6.47;;
58756;SDS011;44527;47.460;19.016;2022-10-16T04:18:47;16.60;;;6.20;;
58756;SDS011;44527;47.460;19.016;2022-10-16T04:21:50;11.18;;;5.90;;
58756;SDS011;44527;47.460;19.016;2022-10-16T04:24:53;12.20;;;6.07;;
58756;SDS011;44527;47.460;19.016;2022-10-16T04:27:57;12.57;;;6.32;;
58756;SDS011;44527;47.460;19.016;2022-10-16T04:30:59;15.82;;;6.28;;
58756;SDS011;44527;47.460;19.016;2022-10-16T04:34:07;16.92;;;6.00;;
58756;SDS011;44527;47.460;19.016;2022-10-16T04:37:12;10.75;;;5.43;;
58756;SDS011;44527;47.460;19.016;2022-10-16T04:40:16;11.12;;;5.87;;
58756;SDS011;44527;47.460;19.016;2022-10-16T04:43:22;10.25;;;6.18;;
58756;SDS011;44527;47.460;19.016;2022-10-16T04:46:30;14.27;;;6.70;;
58756;SDS011;44527;47.460;19.016;2022-10-16T04:49:34;9.15;;;5.93;;
58756;SDS011;44527;47.460;19.016;2022-10-16T04:52:42;12.43;;;6.03;;
58756;SDS011;44527;47.460;19.016;2022-10-16T04:55:45;12.70;;;6.03;;
58756;SDS011;44527;47.460;19.016;2022-10-16T04:59:02;12.45;;;6.32;;
58756;SDS011;44527;47.460;19.016;2022-10-16T05:02:24;13.55;;;5.90;;
58756;SDS011;44527;47.460;19.016;2022-10-16T05:05:46;12.63;;;6.78;;
58756;SDS011;44527;47.460;19.016;2022-10-16T05:08:53;12.43;;;6.65;;
58756;SDS011;44527;47.460;19.016;2022-10-16T05:11:57;10.38;;;6.10;;
58756;SDS011;44527;47.460;19.016;2022-10-16T05:15:03;12.37;;;6.25;;
58756;SDS011;44527;47.460;19.016;2022-10-16T05:18:08;14.87;;;7.22;;
58756;SDS011;44527;47.460;19.016;2022-10-16T05:21:15;12.02;;;6.30;;
58756;SDS011;44527;47.460;19.016;2022-10-16T05:24:42;14.35;;;6.50;;
58756;SDS011;44527;47.460;19.016;2022-10-16T05:28:02;12.37;;;6.25;;
58756;SDS011;44527;47.460;19.016;2022-10-16T05:31:17;14.50;;;6.50;;
58756;SDS011;44527;47.460;19.016;2022-10-16T05:34:24;13.07;;;6.40;;
58756;SDS011;44527;47.460;19.016;2022-10-16T05:37:31;11.63;;;6.75;;
58756;SDS011;44527;47.460;19.016;2022-10-16T05:40:41;16.75;;;6.60;;
58756;SDS011;44527;47.460;19.016;2022-10-16T05:43:53;10.05;;;6.32;;
58756;SDS011;44527;47.460;19.016;2022-10-16T05:47:09;14.05;;;7.07;;
58756;SDS011;44527;47.460;19.016;2022-10-16T05:50:16;14.13;;;5.93;;
58756;SDS011;44527;47.460;19.016;2022-10-16T05:53:22;14.80;;;6.43;;
58756;SDS011;44527;47.460;19.016;2022-10-16T05:56:36;11.88;;;6.37;;
58756;SDS011;44527;47.460;19.016;2022-10-16T05:59:43;9.45;;;6.35;;
58756;SDS011;44527;47.460;19.016;2022-10-16T06:03:01;10.52;;;5.50;;
58756;SDS011;44527;47.460;19.016;2022-10-16T06:06:47;10.40;;;6.25;;
58756;SDS011;44527;47.460;19.016;2022-10-16T06:10:15;10.40;;;6.50;;
58756;SDS011;44527;47.460;19.016;2022-10-16T06:13:26;11.05;;;6.35;;
58756;SDS011;44527;47.460;19.016;2022-10-16T06:16:30;12.60;;;7.37;;
58756;SDS011;44527;47.460;19.016;2022-10-16T06:20:08;14.60;;;7.57;;
58756;SDS011;44527;47.460;19.016;2022-10-16T06:24:12;15.40;;;7.10;;
58756;SDS011;44527;47.460;19.016;2022-10-16T06:27:34;16.42;;;7.90;;
58756;SDS011;44527;47.460;19.016;2022-10-16T06:30:58;13.73;;;6.90;;
58756;SDS011;44527;47.460;19.016;2022-10-16T06:34:25;13.02;;;7.22;;
58756;SDS011;44527;47.460;19.016;2022-10-16T06:37:39;16.20;;;7.18;;
58756;SDS011;44527;47.460;19.016;2022-10-16T06:40:43;17.48;;;7.53;;
58756;SDS011;44527;47.460;19.016;2022-10-16T06:43:55;14.85;;;7.97;;
58756;SDS011;44527;47.460;19.016;2022-10-16T06:47:34;11.90;;;7.37;;
58756;SDS011;44527;47.460;19.016;2022-10-16T06:50:39;19.33;;;7.53;;
58756;SDS011;44527;47.460;19.016;2022-10-16T06:53:47;15.75;;;7.72;;
58756;SDS011;44527;47.460;19.016;2022-10-16T06:57:18;15.73;;;7.50;;
58756;SDS011;44527;47.460;19.016;2022-10-16T07:00:56;16.75;;;6.85;;
58756;SDS011;44527;47.460;19.016;2022-10-16T07:04:29;12.52;;;6.75;;
58756;SDS011;44527;47.460;19.016;2022-10-16T07:09:18;11.88;;;6.82;;
58756;SDS011;44527;47.460;19.016;2022-10-16T07:12:44;11.25;;;6.00;;
58756;SDS011;44527;47.460;19.016;2022-10-16T07:16:40;12.45;;;6.22;;
58756;SDS011;44527;47.460;19.016;2022-10-16T07:20:07;10.85;;;6.00;;
58756;SDS011;44527;47.460;19.016;2022-10-16T07:23:46;15.65;;;5.87;;
58756;SDS011;44527;47.460;19.016;2022-10-16T07:27:51;12.73;;;6.85;;
58756;SDS011;44527;47.460;19.016;2022-10-16T08:00:58;13.82;;;7.20;;
58756;SDS011;44527;47.460;19.016;2022-10-16T08:05:46;11.88;;;6.53;;
58756;SDS011;44527;47.460;19.016;2022-10-16T08:10:17;12.02;;;6.90;;
58756;SDS011;44527;47.460;19.016;2022-10-16T08:14:34;13.88;;;6.00;;
58756;SDS011;44527;47.460;19.016;2022-10-16T08:18:13;12.85;;;7.20;;
58756;SDS011;44527;47.460;19.016;2022-10-16T08:22:07;10.70;;;6.07;;
58756;SDS011;44527;47.460;19.016;2022-10-16T08:25:15;12.07;;;6.68;;
58756;SDS011;44527;47.460;19.016;2022-10-16T08:29:02;15.02;;;6.65;;
58756;SDS011;44527;47.460;19.016;2022-10-16T08:32:24;14.57;;;6.65;;
58756;SDS011;44527;47.460;19.016;2022-10-16T08:35:33;11.82;;;6.70;;
58756;SDS011;44527;47.460;19.016;2022-10-16T08:38:38;13.07;;;7.00;;
58756;SDS011;44527;47.460;19.016;2022-10-16T08:42:58;15.93;;;7.50;;
58756;SDS011;44527;47.460;19.016;2022-10-16T08:47:17;13.65;;;6.80;;
58756;SDS011;44527;47.460;19.016;2022-10-16T08:50:26;16.23;;;7.22;;
58756;SDS011;44527;47.460;19.016;2022-10-16T08:53:43;16.92;;;7.35;;
58756;SDS011;44527;47.460;19.016;2022-10-16T09:00:39;15.27;;;7.47;;
58756;SDS011;44527;47.460;19.016;2022-10-16T09:07:46;21.15;;;6.90;;
58756;SDS011;44527;47.460;19.016;2022-10-16T09:18:56;17.55;;;7.30;;
58756;SDS011;44527;47.460;19.016;2022-10-16T09:22:16;15.23;;;7.45;;
58756;SDS011;44527;47.460;19.016;2022-10-16T09:25:48;19.48;;;7.97;;
58756;SDS011;44527;47.460;19.016;2022-10-16T09:29:13;14.52;;;6.87;;
58756;SDS011;44527;47.460;19.016;2022-10-16T09:32:20;13.10;;;7.22;;
58756;SDS011;44527;47.460;19.016;2022-10-16T09:36:05;11.52;;;6.75;;
58756;SDS011;44527;47.460;19.016;2022-10-16T09:39:10;9.85;;;6.30;;
58756;SDS011;44527;47.460;19.016;2022-10-16T09:42:16;16.67;;;7.60;;
58756;SDS011;44527;47.460;19.016;2022-10-16T09:45:54;15.57;;;6.50;;
58756;SDS011;44527;47.460;19.016;2022-10-16T09:49:22;14.10;;;7.90;;
58756;SDS011;44527;47.460;19.016;2022-10-16T09:53:12;16.75;;;6.85;;
58756;SDS011;44527;47.460;19.016;2022-10-16T09:56:52;14.48;;;6.20;;
58756;SDS011;44527;47.460;19.016;2022-10-16T10:00:38;21.37;;;8.55;;
58756;SDS011;44527;47.460;19.016;2022-10-16T10:04:54;11.10;;;6.47;;
58756;SDS011;44527;47.460;19.016;2022-10-16T10:08:05;10.45;;;6.45;;
58756;SDS011;44527;47.460;19.016;2022-10-16T10:11:37;12.43;;;6.50;;
58756;SDS011;44527;47.460;19.016;2022-10-16T10:15:12;13.02;;;5.87;;
58756;SDS011;44527;47.460;19.016;2022-10-16T10:18:23;11.30;;;6.20;;
58756;SDS011;44527;47.460;19.016;2022-10-16T10:21:34;15.45;;;7.40;;
58756;SDS011;44527;47.460;19.016;2022-10-16T10:29:15;17.00;;;6.65;;
58756;SDS011;44527;47.460;19.016;2022-10-16T10:36:21;13.18;;;6.10;;
58756;SDS011;44527;47.460;19.016;2022-10-16T10:39:48;13.50;;;5.90;;
58756;SDS011;44527;47.460;19.016;2022-10-16T10:43:10;11.18;;;6.03;;
58756;SDS011;44527;47.460;19.016;2022-10-16T10:50:39;18.58;;;5.05;;
58756;SDS011;44527;47.460;19.016;2022-10-16T10:57:30;7.60;;;5.07;;
58756;SDS011;44527;47.460;19.016;2022-10-16T11:01:12;14.87;;;5.47;;
58756;SDS011;44527;47.460;19.016;2022-10-16T11:07:38;7.30;;;4.60;;
58756;SDS011;44527;47.460;19.016;2022-10-16T11:11:10;10.25;;;4.32;;
58756;SDS011;44527;47.460;19.016;2022-10-16T11:14:21;9.25;;;4.82;;
58756;SDS011;44527;47.460;19.016;2022-10-16T11:18:06;7.90;;;4.60;;
58756;SDS011;44527;47.460;19.016;2022-10-16T11:21:21;9.38;;;4.57;;
58756;SDS011;44527;47.460;19.016;2022-10-16T11:24:37;7.28;;;4.47;;
58756;SDS011;44527;47.460;19.016;2022-10-16T11:31:35;15.30;;;4.68;;
58756;SDS011;44527;47.460;19.016;2022-10-16T11:34:49;11.07;;;4.90;;
58756;SDS011;44527;47.460;19.016;2022-10-16T11:37:58;13.13;;;5.32;;
58756;SDS011;44527;47.460;19.016;2022-10-16T11:41:35;9.40;;;4.12;;
58756;SDS011;44527;47.460;19.016;2022-10-16T11:52:28;8.65;;;4.00;;
58756;SDS011;44527;47.460;19.016;2022-10-16T11:55:45;13.50;;;4.40;;
58756;SDS011;44527;47.460;19.016;2022-10-16T11:58:59;18.10;;;4.32;;
58756;SDS011;44527;47.460;19.016;2022-10-16T12:06:02;10.38;;;4.40;;
58756;SDS011;44527;47.460;19.016;2022-10-16T12:09:21;8.48;;;4.05;;
58756;SDS011;44527;47.460;19.016;2022-10-16T12:12:47;14.18;;;3.97;;
58756;SDS011;44527;47.460;19.016;2022-10-16T12:15:52;11.15;;;3.80;;
58756;SDS011;44527;47.460;19.016;2022-10-16T12:19:28;8.43;;;3.40;;
58756;SDS011;44527;47.460;19.016;2022-10-16T12:22:33;5.82;;;4.00;;
58756;SDS011;44527;47.460;19.016;2022-10-16T12:25:53;12.35;;;4.22;;
58756;SDS011;44527;47.460;19.016;2022-10-16T12:29:18;9.05;;;3.67;;
58756;SDS011;44527;47.460;19.016;2022-10-16T12:35:48;4.22;;;3.30;;
58756;SDS011;44527;47.460;19.016;2022-10-16T12:38:54;12.63;;;4.18;;
58756;SDS011;44527;47.460;19.016;2022-10-16T12:42:05;11.98;;;4.53;;
58756;SDS011;44527;47.460;19.016;2022-10-16T12:45:36;10.73;;;4.32;;
58756;SDS011;44527;47.460;19.016;2022-10-16T12:49:22;10.23;;;4.43;;
58756;SDS011;44527;47.460;19.016;2022-10-16T12:53:24;7.07;;;3.72;;
58756;SDS011;44527;47.460;19.016;2022-10-16T13:28:44;8.60;;;3.72;;
58756;SDS011;44527;47.460;19.016;2022-10-16T13:31:52;9.70;;;3.37;;
58756;SDS011;44527;47.460;19.016;2022-10-16T13:34:55;16.75;;;4.05;;
58756;SDS011;44527;47.460;19.016;2022-10-16T13:41:37;5.65;;;3.62;;
58756;SDS011;44527;47.460;19.016;2022-10-16T13:44:44;6.57;;;3.45;;
58756;SDS011;44527;47.460;19.016;2022-10-16T13:48:05;8.48;;;3.95;;
58756;SDS011;44527;47.460;19.016;2022-10-16T13:51:19;8.20;;;3.62;;
58756;SDS011;44527;47.460;19.016;2022-10-16T13:54:23;9.82;;;3.55;;
58756;SDS011;44527;47.460;19.016;2022-10-16T13:57:27;6.25;;;3.40;;
58756;SDS011;44527;47.460;19.016;2022-10-16T14:00:31;6.78;;;3.78;;
58756;SDS011;44527;47.460;19.016;2022-10-16T14:03:43;8.70;;;3.60;;
58756;SDS011;44527;47.460;19.016;2022-10-16T14:06:49;5.80;;;3.55;;
58756;SDS011;44527;47.460;19.016;2022-10-16T14:10:05;5.32;;;2.90;;
58756;SDS011;44527;47.460;19.016;2022-10-16T14:14:16;10.20;;;3.40;;
58756;SDS011;44527;47.460;19.016;2022-10-16T14:17:58;14.73;;;3.75;;
58756;SDS011;44527;47.460;19.016;2022-10-16T14:21:12;6.78;;;3.78;;
58756;SDS011;44527;47.460;19.016;2022-10-16T14:24:24;8.60;;;3.58;;
58756;SDS011;44527;47.460;19.016;2022-10-16T14:27:40;11.98;;;3.50;;
58756;SDS011;44527;47.460;19.016;2022-10-16T14:30:54;8.43;;;3.70;;
58756;SDS011;44527;47.460;19.016;2022-10-16T14:38:19;8.10;;;3.58;;
58756;SDS011;44527;47.460;19.016;2022-10-16T14:42:16;7.20;;;3.33;;
58756;SDS011;44527;47.460;19.016;2022-10-16T14:45:30;8.98;;;3.78;;
58756;SDS011;44527;47.460;19.016;2022-10-16T14:49:15;6.37;;;3.20;;
58756;SDS011;44527;47.460;19.016;2022-10-16T14:52:47;8.50;;;3.60;;
58756;SDS011;44527;47.460;19.016;2022-10-16T14:55:56;8.15;;;3.47;;
58756;SDS011;44527;47.460;19.016;2022-10-16T14:59:07;7.90;;;3.55;;
58756;SDS011;44527;47.460;19.016;2022-10-16T15:02:48;7.50;;;3.30;;
58756;SDS011;44527;47.460;19.016;2022-10-16T15:06:34;8.63;;;3.67;;
58756;SDS011;44527;47.460;19.016;2022-10-16T15:09:44;13.23;;;4.32;;
58756;SDS011;44527;47.460;19.016;2022-10-16T15:12:54;6.55;;;3.90;;
58756;SDS011;44527;47.460;19.016;2022-10-16T15:16:22;8.48;;;3.70;;
58756;SDS011;44527;47.460;19.016;2022-10-16T15:19:53;7.62;;;3.80;;
58756;SDS011;44527;47.460;19.016;2022-10-16T15:23:23;7.93;;;3.62;;
58756;SDS011;44527;47.460;19.016;2022-10-16T15:26:31;9.43;;;3.85;;
58756;SDS011;44527;47.460;19.016;2022-10-16T15:29:39;8.02;;;4.03;;
58756;SDS011;44527;47.460;19.016;2022-10-16T15:32:53;9.15;;;3.97;;
58756;SDS011;44527;47.460;19.016;2022-10-16T15:36:31;9.98;;;4.10;;
58756;SDS011;44527;47.460;19.016;2022-10-16T15:40:00;11.60;;;4.10;;
58756;SDS011;44527;47.460;19.016;2022-10-16T15:43:23;12.68;;;4.10;;
58756;SDS011;44527;47.460;19.016;2022-10-16T15:46:58;13.55;;;4.50;;
58756;SDS011;44527;47.460;19.016;2022-10-16T15:50:23;12.50;;;4.07;;
58756;SDS011;44527;47.460;19.016;2022-10-16T15:53:44;10.57;;;4.82;;
58756;SDS011;44527;47.460;19.016;2022-10-16T15:57:12;11.43;;;4.90;;
58756;SDS011;44527;47.460;19.016;2022-10-16T16:00:31;10.50;;;5.43;;
58756;SDS011;44527;47.460;19.016;2022-10-16T16:03:55;9.73;;;5.25;;
58756;SDS011;44527;47.460;19.016;2022-10-16T16:07:35;14.63;;;6.78;;
58756;SDS011;44527;47.460;19.016;2022-10-16T16:11:06;13.02;;;6.15;;
58756;SDS011;44527;47.460;19.016;2022-10-16T16:14:40;19.83;;;6.75;;
58756;SDS011;44527;47.460;19.016;2022-10-16T16:18:26;18.77;;;6.65;;
58756;SDS011;44527;47.460;19.016;2022-10-16T16:22:06;22.05;;;7.37;;
58756;SDS011;44527;47.460;19.016;2022-10-16T16:25:45;22.10;;;7.53;;
58756;SDS011;44527;47.460;19.016;2022-10-16T16:29:36;17.52;;;7.30;;
58756;SDS011;44527;47.460;19.016;2022-10-16T16:37:07;12.82;;;7.30;;
58756;SDS011;44527;47.460;19.016;2022-10-16T16:40:35;16.92;;;8.50;;
58756;SDS011;44527;47.460;19.016;2022-10-16T16:44:26;17.23;;;8.68;;
58756;SDS011;44527;47.460;19.016;2022-10-16T16:48:17;15.75;;;7.90;;
58756;SDS011;44527;47.460;19.016;2022-10-16T16:51:54;17.02;;;7.75;;
58756;SDS011;44527;47.460;19.016;2022-10-16T16:55:42;16.55;;;7.20;;
58756;SDS011;44527;47.460;19.016;2022-10-16T16:59:05;17.25;;;8.00;;
58756;SDS011;44527;47.460;19.016;2022-10-16T17:02:56;16.45;;;7.68;;
58756;SDS011;44527;47.460;19.016;2022-10-16T17:06:09;15.65;;;7.22;;
58756;SDS011;44527;47.460;19.016;2022-10-16T17:10:00;15.68;;;7.50;;
58756;SDS011;44527;47.460;19.016;2022-10-16T17:13:29;15.52;;;8.23;;
58756;SDS011;44527;47.460;19.016;2022-10-16T17:17:33;15.07;;;7.55;;
58756;SDS011;44527;47.460;19.016;2022-10-16T17:21:21;13.82;;;7.62;;
58756;SDS011;44527;47.460;19.016;2022-10-16T17:25:22;15.25;;;8.15;;
58756;SDS011;44527;47.460;19.016;2022-10-16T17:29:22;19.25;;;8.50;;
58756;SDS011;44527;47.460;19.016;2022-10-16T17:33:03;27.75;;;8.52;;
58756;SDS011;44527;47.460;19.016;2022-10-16T17:36:37;16.98;;;7.40;;
58756;SDS011;44527;47.460;19.016;2022-10-16T17:40:11;16.15;;;8.07;;
58756;SDS011;44527;47.460;19.016;2022-10-16T17:43:44;13.60;;;8.07;;
58756;SDS011;44527;47.460;19.016;2022-10-16T17:47:29;23.67;;;8.38;;
58756;SDS011;44527;47.460;19.016;2022-10-16T17:51:16;15.75;;;7.72;;
58756;SDS011;44527;47.460;19.016;2022-10-16T17:54:43;17.00;;;7.80;;
58756;SDS011;44527;47.460;19.016;2022-10-16T17:58:32;17.05;;;7.43;;
58756;SDS011;44527;47.460;19.016;2022-10-16T18:02:47;14.57;;;7.53;;
58756;SDS011;44527;47.460;19.016;2022-10-16T18:06:53;16.48;;;7.90;;
58756;SDS011;44527;47.460;19.016;2022-10-16T18:11:15;26.58;;;8.30;;
58756;SDS011;44527;47.460;19.016;2022-10-16T18:15:28;18.83;;;8.40;;
58756;SDS011;44527;47.460;19.016;2022-10-16T18:19:22;19.08;;;8.10;;
58756;SDS011;44527;47.460;19.016;2022-10-16T18:26:27;19.58;;;8.90;;
58756;SDS011;44527;47.460;19.016;2022-10-16T18:29:59;21.05;;;8.55;;
58756;SDS011;44527;47.460;19.016;2022-10-16T18:33:35;18.33;;;7.80;;
58756;SDS011;44527;47.460;19.016;2022-10-16T18:37:20;18.87;;;8.35;;
58756;SDS011;44527;47.460;19.016;2022-10-16T18:41:07;23.25;;;9.52;;
58756;SDS011;44527;47.460;19.016;2022-10-16T18:44:28;24.00;;;8.80;;
58756;SDS011;44527;47.460;19.016;2022-10-16T18:47:38;21.50;;;9.50;;
58756;SDS011;44527;47.460;19.016;2022-10-16T18:51:34;19.55;;;9.63;;
58756;SDS011;44527;47.460;19.016;2022-10-16T18:55:24;27.65;;;9.45;;
58756;SDS011;44527;47.460;19.016;2022-10-16T18:58:52;21.98;;;10.27;;
58756;SDS011;44527;47.460;19.016;2022-10-16T19:02:21;17.85;;;9.20;;
58756;SDS011;44527;47.460;19.016;2022-10-16T19:06:24;21.70;;;9.32;;
58756;SDS011;44527;47.460;19.016;2022-10-16T19:10:17;20.17;;;9.43;;
58756;SDS011;44527;47.460;19.016;2022-10-16T19:13:52;18.15;;;9.50;;
58756;SDS011;44527;47.460;19.016;2022-10-16T19:17:35;18.45;;;8.30;;
58756;SDS011;44527;47.460;19.016;2022-10-16T19:21:42;17.30;;;8.80;;
58756;SDS011;44527;47.460;19.016;2022-10-16T19:25:07;19.75;;;9.52;;
58756;SDS011;44527;47.460;19.016;2022-10-16T19:29:05;23.38;;;9.57;;
58756;SDS011;44527;47.460;19.016;2022-10-16T19:32:31;22.58;;;10.65;;
58756;SDS011;44527;47.460;19.016;2022-10-16T19:36:20;24.58;;;10.98;;
58756;SDS011;44527;47.460;19.016;2022-10-16T19:40:30;22.40;;;11.52;;
58756;SDS011;44527;47.460;19.016;2022-10-16T19:44:07;19.90;;;11.07;;
58756;SDS011;44527;47.460;19.016;2022-10-16T19:47:27;25.52;;;10.23;;
58756;SDS011;44527;47.460;19.016;2022-10-16T19:51:10;20.48;;;10.80;;
58756;SDS011;44527;47.460;19.016;2022-10-16T19:54:50;16.70;;;9.60;;
58756;SDS011;44527;47.460;19.016;2022-10-16T19:58:30;20.70;;;9.75;;
58756;SDS011;44527;47.460;19.016;2022-10-16T20:02:21;19.42;;;10.18;;
58756;SDS011;44527;47.460;19.016;2022-10-16T20:06:00;20.70;;;9.75;;
58756;SDS011;44527;47.460;19.016;2022-10-16T20:09:49;24.02;;;10.15;;
58756;SDS011;44527;47.460;19.016;2022-10-16T20:13:19;21.05;;;9.52;;
58756;SDS011;44527;47.460;19.016;2022-10-16T20:17:01;19.85;;;10.52;;
58756;SDS011;44527;47.460;19.016;2022-10-16T20:20:41;19.35;;;10.55;;
58756;SDS011;44527;47.460;19.016;2022-10-16T20:24:31;22.90;;;10.70;;
58756;SDS011;44527;47.460;19.016;2022-10-16T20:27:57;19.15;;;9.82;;
58756;SDS011;44527;47.460;19.016;2022-10-16T20:31:27;19.33;;;10.65;;
58756;SDS011;44527;47.460;19.016;2022-10-16T20:35:47;17.73;;;10.07;;
58756;SDS011;44527;47.460;19.016;2022-10-16T20:39:02;19.55;;;9.70;;
58756;SDS011;44527;47.460;19.016;2022-10-16T20:42:53;17.85;;;9.45;;
58756;SDS011;44527;47.460;19.016;2022-10-16T20:46:28;19.83;;;10.57;;
58756;SDS011;44527;47.460;19.016;2022-10-16T20:49:57;32.15;;;11.12;;
58756;SDS011;44527;47.460;19.016;2022-10-16T20:53:02;23.35;;;11.85;;
58756;SDS011;44527;47.460;19.016;2022-10-16T20:56:39;23.87;;;11.98;;
58756;SDS011;44527;47.460;19.016;2022-10-16T20:59:51;25.02;;;11.93;;
58756;SDS011;44527;47.460;19.016;2022-10-16T21:03:14;31.08;;;13.93;;
58756;SDS011;44527;47.460;19.016;2022-10-16T21:06:49;29.27;;;13.57;;
58756;SDS011;44527;47.460;19.016;2022-10-16T21:10:45;30.58;;;13.90;;
58756;SDS011;44527;47.460;19.016;2022-10-16T21:15:00;26.30;;;13.13;;
58756;SDS011;44527;47.460;19.016;2022-10-16T21:18:36;26.60;;;13.77;;
58756;SDS011;44527;47.460;19.016;2022-10-16T21:22:21;29.17;;;14.23;;
58756;SDS011;44527;47.460;19.016;2022-10-16T21:25:51;28.65;;;12.98;;
58756;SDS011;44527;47.460;19.016;2022-10-16T21:30:11;30.25;;;13.32;;
58756;SDS011;44527;47.460;19.016;2022-10-16T21:33:49;27.05;;;13.57;;
58756;SDS011;44527;47.460;19.016;2022-10-16T21:37:11;25.73;;;13.88;;
58756;SDS011;44527;47.460;19.016;2022-10-16T21:40:40;27.77;;;13.35;;
58756;SDS011;44527;47.460;19.016;2022-10-16T21:44:14;29.30;;;13.93;;
58756;SDS011;44527;47.460;19.016;2022-10-16T21:47:51;29.17;;;12.85;;
58756;SDS011;44527;47.460;19.016;2022-10-16T21:51:59;21.70;;;12.55;;
58756;SDS011;44527;47.460;19.016;2022-10-16T22:00:12;22.37;;;12.37;;
58756;SDS011;44527;47.460;19.016;2022-10-16T22:04:20;26.67;;;12.68;;
58756;SDS011;44527;47.460;19.016;2022-10-16T22:08:01;22.08;;;11.95;;
58756;SDS011;44527;47.460;19.016;2022-10-16T22:12:04;26.52;;;11.77;;
58756;SDS011;44527;47.460;19.016;2022-10-16T22:16:18;25.92;;;13.07;;
58756;SDS011;44527;47.460;19.016;2022-10-16T22:20:19;22.85;;;12.35;;
58756;SDS011;44527;47.460;19.016;2022-10-16T22:24:14;25.02;;;12.18;;